sensor_id;sensor_type;location;lat;lon;timestamp;temperature;humidity
75091;DHT22;63674;48.048;8.306;2023-03-25T00:01:18;6.50;99.90
75091;DHT22;63674;48.048;8.306;2023-03-25T00:03:51;6.60;99.90
75091;DHT22;63674;48.048;8.306;2023-03-25T00:06:20;6.60;99.90
75091;DHT22;63674;48.048;8.306;2023-03-25T00:08:48;6.50;99.90
75091;DHT22;63674;48.048;8.306;2023-03-25T00:11:17;6.50;99.90
75091;DHT22;63674;48.048;8.306;2023-03-25T00:13:46;6.50;99.90
75091;DHT22;63674;48.048;8.306;2023-03-25T00:16:16;6.50;99.90
75091;DHT22;63674;48.048;8.306;2023-03-25T00:18:46;6.50;99.90
75091;DHT22;63674;48.048;8.306;2023-03-25T00:21:15;6.50;99.90
75091;DHT22;63674;48.048;8.306;2023-03-25T00:23:44;6.50;99.90
75091;DHT22;63674;48.048;8.306;2023-03-25T00:26:13;6.50;99.90
75091;DHT22;63674;48.048;8.306;2023-03-25T00:28:42;6.50;99.90
75091;DHT22;63674;48.048;8.306;2023-03-25T00:31:12;6.50;99.90
75091;DHT22;63674;48.048;8.306;2023-03-25T00:33:43;6.40;99.90
75091;DHT22;63674;48.048;8.306;2023-03-25T00:36:12;6.40;99.90
75091;DHT22;63674;48.048;8.306;2023-03-25T00:38:41;6.40;99.90
75091;DHT22;63674;48.048;8.306;2023-03-25T00:41:13;6.40;99.90
75091;DHT22;63674;48.048;8.306;2023-03-25T00:43:51;6.40;99.90
75091;DHT22;63674;48.048;8.306;2023-03-25T00:46:20;6.40;99.90
75091;DHT22;63674;48.048;8.306;2023-03-25T00:48:50;6.40;99.90
75091;DHT22;63674;48.048;8.306;2023-03-25T00:51:20;6.40;99.90
75091;DHT22;63674;48.048;8.306;2023-03-25T00:53:50;6.40;99.90
75091;DHT22;63674;48.048;8.306;2023-03-25T00:56:20;6.40;99.90
75091;DHT22;63674;48.048;8.306;2023-03-25T00:58:50;6.30;99.90
75091;DHT22;63674;48.048;8.306;2023-03-25T01:01:21;6.30;99.90
75091;DHT22;63674;48.048;8.306;2023-03-25T01:03:55;6.30;99.90
75091;DHT22;63674;48.048;8.306;2023-03-25T01:06:26;6.30;99.90
75091;DHT22;63674;48.048;8.306;2023-03-25T01:08:56;6.30;99.90
75091;DHT22;63674;48.048;8.306;2023-03-25T01:11:27;6.40;99.90
75091;DHT22;63674;48.048;8.306;2023-03-25T01:14:01;6.40;99.90
75091;DHT22;63674;48.048;8.306;2023-03-25T01:16:32;6.40;99.90
75091;DHT22;63674;48.048;8.306;2023-03-25T01:19:02;6.40;99.90
75091;DHT22;63674;48.048;8.306;2023-03-25T01:21:30;6.30;99.90
75091;DHT22;63674;48.048;8.306;2023-03-25T01:24:03;6.40;99.90
75091;DHT22;63674;48.048;8.306;2023-03-25T01:26:32;6.40;99.90
75091;DHT22;63674;48.048;8.306;2023-03-25T01:29:00;6.50;99.90
75091;DHT22;63674;48.048;8.306;2023-03-25T01:31:29;6.40;99.90
75091;DHT22;63674;48.048;8.306;2023-03-25T01:33:58;6.40;99.90
75091;DHT22;63674;48.048;8.306;2023-03-25T01:36:28;6.40;99.90
75091;DHT22;63674;48.048;8.306;2023-03-25T01:38:58;6.40;99.90
75091;DHT22;63674;48.048;8.306;2023-03-25T01:41:28;6.30;99.90
75091;DHT22;63674;48.048;8.306;2023-03-25T01:47:42;6.30;99.90
75091;DHT22;63674;48.048;8.306;2023-03-25T01:50:11;6.30;99.90
75091;DHT22;63674;48.048;8.306;2023-03-25T01:52:46;6.30;99.90
75091;DHT22;63674;48.048;8.306;2023-03-25T01:55:16;6.30;99.90
75091;DHT22;63674;48.048;8.306;2023-03-25T01:57:47;6.30;99.90
75091;DHT22;63674;48.048;8.306;2023-03-25T02:00:20;6.30;99.90
75091;DHT22;63674;48.048;8.306;2023-03-25T02:02:49;6.30;99.90
75091;DHT22;63674;48.048;8.306;2023-03-25T02:05:22;6.30;99.90
75091;DHT22;63674;48.048;8.306;2023-03-25T02:07:56;6.20;99.90
75091;DHT22;63674;48.048;8.306;2023-03-25T02:10:25;6.30;99.90
75091;DHT22;63674;48.048;8.306;2023-03-25T02:12:53;6.30;99.90
75091;DHT22;63674;48.048;8.306;2023-03-25T02:15:22;6.30;99.90
75091;DHT22;63674;48.048;8.306;2023-03-25T02:18:19;6.20;99.90
75091;DHT22;63674;48.048;8.306;2023-03-25T02:24:59;6.00;99.90
75091;DHT22;63674;48.048;8.306;2023-03-25T02:27:59;5.80;99.90
75091;DHT22;63674;48.048;8.306;2023-03-25T02:30:54;5.60;99.90
75091;DHT22;63674;48.048;8.306;2023-03-25T02:40:27;5.10;99.90
75091;DHT22;63674;48.048;8.306;2023-03-25T02:43:04;5.20;99.90
75091;DHT22;63674;48.048;8.306;2023-03-25T02:45:43;5.20;99.90
75091;DHT22;63674;48.048;8.306;2023-03-25T02:48:17;5.10;99.90
75091;DHT22;63674;48.048;8.306;2023-03-25T02:50:50;5.20;99.90
75091;DHT22;63674;48.048;8.306;2023-03-25T02:53:25;5.10;99.90
75091;DHT22;63674;48.048;8.306;2023-03-25T02:55:59;5.10;99.90
75091;DHT22;63674;48.048;8.306;2023-03-25T02:58:30;5.10;99.90
75091;DHT22;63674;48.048;8.306;2023-03-25T03:01:00;5.20;99.90
75091;DHT22;63674;48.048;8.306;2023-03-25T03:03:29;5.20;99.90
75091;DHT22;63674;48.048;8.306;2023-03-25T03:05:59;5.10;99.90
75091;DHT22;63674;48.048;8.306;2023-03-25T03:08:44;5.20;99.90
75091;DHT22;63674;48.048;8.306;2023-03-25T03:11:23;5.10;99.90
75091;DHT22;63674;48.048;8.306;2023-03-25T03:13:59;5.10;99.90
75091;DHT22;63674;48.048;8.306;2023-03-25T03:16:42;5.00;99.90
75091;DHT22;63674;48.048;8.306;2023-03-25T03:19:28;5.00;99.90
75091;DHT22;63674;48.048;8.306;2023-03-25T03:22:22;5.00;99.90
75091;DHT22;63674;48.048;8.306;2023-03-25T03:25:08;5.00;99.90
75091;DHT22;63674;48.048;8.306;2023-03-25T03:27:46;4.90;99.90
75091;DHT22;63674;48.048;8.306;2023-03-25T03:30:19;4.90;99.90
75091;DHT22;63674;48.048;8.306;2023-03-25T03:32:55;4.80;99.90
75091;DHT22;63674;48.048;8.306;2023-03-25T03:35:30;4.90;99.90
75091;DHT22;63674;48.048;8.306;2023-03-25T03:38:08;4.80;99.90
75091;DHT22;63674;48.048;8.306;2023-03-25T03:40:43;4.80;99.90
75091;DHT22;63674;48.048;8.306;2023-03-25T03:43:16;4.80;99.90
75091;DHT22;63674;48.048;8.306;2023-03-25T03:45:52;4.80;99.90
75091;DHT22;63674;48.048;8.306;2023-03-25T03:48:26;4.80;99.90
75091;DHT22;63674;48.048;8.306;2023-03-25T03:51:03;3.60;99.90
75091;DHT22;63674;48.048;8.306;2023-03-25T03:53:37;4.70;99.90
75091;DHT22;63674;48.048;8.306;2023-03-25T03:56:11;4.60;99.90
75091;DHT22;63674;48.048;8.306;2023-03-25T03:58:42;4.60;99.90
75091;DHT22;63674;48.048;8.306;2023-03-25T04:01:14;4.60;99.90
75091;DHT22;63674;48.048;8.306;2023-03-25T04:03:46;4.60;99.90
75091;DHT22;63674;48.048;8.306;2023-03-25T04:06:22;4.60;99.90
75091;DHT22;63674;48.048;8.306;2023-03-25T04:08:56;4.60;99.90
75091;DHT22;63674;48.048;8.306;2023-03-25T04:11:34;4.60;99.90
75091;DHT22;63674;48.048;8.306;2023-03-25T04:14:07;4.50;99.90
75091;DHT22;63674;48.048;8.306;2023-03-25T04:16:36;4.50;99.90
75091;DHT22;63674;48.048;8.306;2023-03-25T04:19:05;4.40;99.90
75091;DHT22;63674;48.048;8.306;2023-03-25T04:21:35;4.40;99.90
75091;DHT22;63674;48.048;8.306;2023-03-25T04:24:04;4.40;99.90
75091;DHT22;63674;48.048;8.306;2023-03-25T04:26:36;4.40;99.90
75091;DHT22;63674;48.048;8.306;2023-03-25T04:29:04;4.50;99.90
75091;DHT22;63674;48.048;8.306;2023-03-25T04:31:33;4.50;99.90
75091;DHT22;63674;48.048;8.306;2023-03-25T04:34:03;4.50;99.90
75091;DHT22;63674;48.048;8.306;2023-03-25T04:36:32;4.50;99.90
75091;DHT22;63674;48.048;8.306;2023-03-25T04:39:03;4.50;99.90
75091;DHT22;63674;48.048;8.306;2023-03-25T04:41:37;4.50;99.90
75091;DHT22;63674;48.048;8.306;2023-03-25T04:44:06;4.50;99.90
75091;DHT22;63674;48.048;8.306;2023-03-25T04:46:36;4.50;99.90
75091;DHT22;63674;48.048;8.306;2023-03-25T04:49:05;4.50;99.90
75091;DHT22;63674;48.048;8.306;2023-03-25T04:51:40;4.50;99.90
75091;DHT22;63674;48.048;8.306;2023-03-25T04:54:11;4.50;99.90
75091;DHT22;63674;48.048;8.306;2023-03-25T04:56:43;4.50;99.90
75091;DHT22;63674;48.048;8.306;2023-03-25T04:59:13;4.50;99.90
75091;DHT22;63674;48.048;8.306;2023-03-25T05:01:42;4.50;99.90
75091;DHT22;63674;48.048;8.306;2023-03-25T05:04:14;4.60;99.90
75091;DHT22;63674;48.048;8.306;2023-03-25T05:06:48;4.60;99.90
75091;DHT22;63674;48.048;8.306;2023-03-25T05:09:18;4.60;99.90
75091;DHT22;63674;48.048;8.306;2023-03-25T05:11:51;4.60;99.90
75091;DHT22;63674;48.048;8.306;2023-03-25T05:14:22;4.60;99.90
75091;DHT22;63674;48.048;8.306;2023-03-25T05:16:50;4.50;99.90
75091;DHT22;63674;48.048;8.306;2023-03-25T05:19:19;4.50;99.90
75091;DHT22;63674;48.048;8.306;2023-03-25T05:21:47;4.50;99.90
75091;DHT22;63674;48.048;8.306;2023-03-25T05:24:16;4.50;99.90
75091;DHT22;63674;48.048;8.306;2023-03-25T05:26:45;4.40;99.90
75091;DHT22;63674;48.048;8.306;2023-03-25T05:29:15;4.30;99.90
75091;DHT22;63674;48.048;8.306;2023-03-25T05:31:44;4.30;99.90
75091;DHT22;63674;48.048;8.306;2023-03-25T05:34:14;4.20;99.90
75091;DHT22;63674;48.048;8.306;2023-03-25T05:36:43;4.20;99.90
75091;DHT22;63674;48.048;8.306;2023-03-25T05:39:12;4.30;99.90
75091;DHT22;63674;48.048;8.306;2023-03-25T05:41:41;4.20;99.90
75091;DHT22;63674;48.048;8.306;2023-03-25T05:44:12;4.20;99.90
75091;DHT22;63674;48.048;8.306;2023-03-25T05:46:46;4.10;99.90
75091;DHT22;63674;48.048;8.306;2023-03-25T05:49:15;4.20;99.90
75091;DHT22;63674;48.048;8.306;2023-03-25T05:51:43;4.20;99.90
75091;DHT22;63674;48.048;8.306;2023-03-25T05:54:12;4.10;99.90
75091;DHT22;63674;48.048;8.306;2023-03-25T05:56:41;4.10;99.90
75091;DHT22;63674;48.048;8.306;2023-03-25T05:59:09;5.30;99.90
75091;DHT22;63674;48.048;8.306;2023-03-25T06:01:40;4.10;99.90
75091;DHT22;63674;48.048;8.306;2023-03-25T06:04:13;4.10;99.90
75091;DHT22;63674;48.048;8.306;2023-03-25T06:06:42;4.10;99.90
75091;DHT22;63674;48.048;8.306;2023-03-25T06:09:11;4.20;99.90
75091;DHT22;63674;48.048;8.306;2023-03-25T06:11:39;4.30;99.90
75091;DHT22;63674;48.048;8.306;2023-03-25T06:14:08;4.20;99.90
75091;DHT22;63674;48.048;8.306;2023-03-25T06:16:37;5.50;99.90
75091;DHT22;63674;48.048;8.306;2023-03-25T06:19:05;4.20;99.90
75091;DHT22;63674;48.048;8.306;2023-03-25T06:21:36;4.20;99.90
75091;DHT22;63674;48.048;8.306;2023-03-25T06:24:07;4.30;99.90
75091;DHT22;63674;48.048;8.306;2023-03-25T06:26:35;4.30;99.90
75091;DHT22;63674;48.048;8.306;2023-03-25T06:29:04;4.40;99.90
75091;DHT22;63674;48.048;8.306;2023-03-25T06:31:34;4.40;99.90
75091;DHT22;63674;48.048;8.306;2023-03-25T06:34:05;4.50;99.90
75091;DHT22;63674;48.048;8.306;2023-03-25T06:36:33;4.50;99.90
75091;DHT22;63674;48.048;8.306;2023-03-25T06:39:04;4.60;99.90
75091;DHT22;63674;48.048;8.306;2023-03-25T06:41:32;4.50;99.90
75091;DHT22;63674;48.048;8.306;2023-03-25T06:44:04;4.50;99.90
75091;DHT22;63674;48.048;8.306;2023-03-25T06:46:32;4.50;99.90
75091;DHT22;63674;48.048;8.306;2023-03-25T06:49:01;4.60;99.90
75091;DHT22;63674;48.048;8.306;2023-03-25T06:51:30;4.50;99.90
75091;DHT22;63674;48.048;8.306;2023-03-25T06:54:00;4.60;99.90
75091;DHT22;63674;48.048;8.306;2023-03-25T06:56:29;4.60;99.90
75091;DHT22;63674;48.048;8.306;2023-03-25T06:58:57;4.70;99.90
75091;DHT22;63674;48.048;8.306;2023-03-25T07:01:26;4.80;99.90
75091;DHT22;63674;48.048;8.306;2023-03-25T07:03:54;4.80;99.90
75091;DHT22;63674;48.048;8.306;2023-03-25T07:06:23;4.80;99.90
75091;DHT22;63674;48.048;8.306;2023-03-25T07:08:52;4.90;99.90
75091;DHT22;63674;48.048;8.306;2023-03-25T07:11:25;4.90;99.90
75091;DHT22;63674;48.048;8.306;2023-03-25T07:13:54;5.00;99.90
75091;DHT22;63674;48.048;8.306;2023-03-25T07:16:23;5.00;99.90
75091;DHT22;63674;48.048;8.306;2023-03-25T07:18:52;5.00;99.90
75091;DHT22;63674;48.048;8.306;2023-03-25T07:21:22;5.00;99.90
75091;DHT22;63674;48.048;8.306;2023-03-25T07:23:52;5.00;99.90
75091;DHT22;63674;48.048;8.306;2023-03-25T07:26:21;5.10;99.90
75091;DHT22;63674;48.048;8.306;2023-03-25T07:28:50;5.00;99.90
75091;DHT22;63674;48.048;8.306;2023-03-25T07:31:19;5.00;99.90
75091;DHT22;63674;48.048;8.306;2023-03-25T07:33:47;5.00;99.90
75091;DHT22;63674;48.048;8.306;2023-03-25T07:36:17;5.00;99.90
75091;DHT22;63674;48.048;8.306;2023-03-25T07:38:47;5.00;99.90
75091;DHT22;63674;48.048;8.306;2023-03-25T07:41:16;4.90;99.90
75091;DHT22;63674;48.048;8.306;2023-03-25T07:43:46;4.90;99.90
75091;DHT22;63674;48.048;8.306;2023-03-25T07:46:14;4.80;99.90
75091;DHT22;63674;48.048;8.306;2023-03-25T07:48:43;4.80;99.90
75091;DHT22;63674;48.048;8.306;2023-03-25T07:51:11;4.80;99.90
75091;DHT22;63674;48.048;8.306;2023-03-25T07:53:40;4.80;99.90
75091;DHT22;63674;48.048;8.306;2023-03-25T07:56:11;4.90;99.90
75091;DHT22;63674;48.048;8.306;2023-03-25T07:58:40;4.90;99.90
75091;DHT22;63674;48.048;8.306;2023-03-25T08:01:11;5.00;99.90
75091;DHT22;63674;48.048;8.306;2023-03-25T08:03:40;5.00;99.90
75091;DHT22;63674;48.048;8.306;2023-03-25T08:06:09;5.00;99.90
75091;DHT22;63674;48.048;8.306;2023-03-25T08:08:37;5.00;99.90
75091;DHT22;63674;48.048;8.306;2023-03-25T08:11:06;5.00;99.90
75091;DHT22;63674;48.048;8.306;2023-03-25T08:13:36;4.90;99.90
75091;DHT22;63674;48.048;8.306;2023-03-25T08:16:11;4.90;99.90
75091;DHT22;63674;48.048;8.306;2023-03-25T08:18:41;4.90;99.90
75091;DHT22;63674;48.048;8.306;2023-03-25T08:21:11;4.90;99.90
75091;DHT22;63674;48.048;8.306;2023-03-25T08:23:40;4.90;99.90
75091;DHT22;63674;48.048;8.306;2023-03-25T08:26:10;4.80;99.90
75091;DHT22;63674;48.048;8.306;2023-03-25T08:28:38;4.80;99.90
75091;DHT22;63674;48.048;8.306;2023-03-25T08:31:07;4.80;99.90
75091;DHT22;63674;48.048;8.306;2023-03-25T08:33:37;4.80;99.90
75091;DHT22;63674;48.048;8.306;2023-03-25T08:36:07;4.70;99.90
75091;DHT22;63674;48.048;8.306;2023-03-25T08:38:40;4.80;99.90
75091;DHT22;63674;48.048;8.306;2023-03-25T08:41:09;4.80;99.90
75091;DHT22;63674;48.048;8.306;2023-03-25T08:43:37;4.90;99.90
75091;DHT22;63674;48.048;8.306;2023-03-25T08:46:06;4.90;99.90
75091;DHT22;63674;48.048;8.306;2023-03-25T08:48:36;4.90;99.90
75091;DHT22;63674;48.048;8.306;2023-03-25T08:51:06;5.00;99.90
75091;DHT22;63674;48.048;8.306;2023-03-25T08:53:36;5.00;99.90
75091;DHT22;63674;48.048;8.306;2023-03-25T08:56:05;5.10;99.90
75091;DHT22;63674;48.048;8.306;2023-03-25T08:58:34;5.20;99.90
75091;DHT22;63674;48.048;8.306;2023-03-25T09:01:03;5.20;99.90
75091;DHT22;63674;48.048;8.306;2023-03-25T09:03:32;5.30;99.90
75091;DHT22;63674;48.048;8.306;2023-03-25T09:06:06;5.30;99.90
75091;DHT22;63674;48.048;8.306;2023-03-25T09:08:36;5.20;99.90
75091;DHT22;63674;48.048;8.306;2023-03-25T09:11:05;5.20;99.90
75091;DHT22;63674;48.048;8.306;2023-03-25T09:13:34;5.30;99.90
75091;DHT22;63674;48.048;8.306;2023-03-25T09:16:02;5.30;99.90
75091;DHT22;63674;48.048;8.306;2023-03-25T09:18:31;5.40;99.90
75091;DHT22;63674;48.048;8.306;2023-03-25T09:21:03;5.50;99.90
75091;DHT22;63674;48.048;8.306;2023-03-25T09:23:33;5.50;99.90
75091;DHT22;63674;48.048;8.306;2023-03-25T09:26:02;5.50;99.90
75091;DHT22;63674;48.048;8.306;2023-03-25T09:28:31;5.60;99.90
75091;DHT22;63674;48.048;8.306;2023-03-25T09:31:00;5.60;99.90
75091;DHT22;63674;48.048;8.306;2023-03-25T09:33:28;5.60;99.90
75091;DHT22;63674;48.048;8.306;2023-03-25T09:35:57;5.70;99.90
75091;DHT22;63674;48.048;8.306;2023-03-25T09:38:26;5.80;99.90
75091;DHT22;63674;48.048;8.306;2023-03-25T09:40:55;5.80;99.90
75091;DHT22;63674;48.048;8.306;2023-03-25T09:43:31;6.00;99.90
75091;DHT22;63674;48.048;8.306;2023-03-25T09:46:07;6.00;99.90
75091;DHT22;63674;48.048;8.306;2023-03-25T09:48:37;6.00;99.90
75091;DHT22;63674;48.048;8.306;2023-03-25T09:51:14;6.00;99.90
75091;DHT22;63674;48.048;8.306;2023-03-25T09:53:49;6.20;99.90
75091;DHT22;63674;48.048;8.306;2023-03-25T09:56:20;6.10;99.90
75091;DHT22;63674;48.048;8.306;2023-03-25T09:58:53;6.30;99.90
75091;DHT22;63674;48.048;8.306;2023-03-25T10:01:31;6.70;99.90
75091;DHT22;63674;48.048;8.306;2023-03-25T10:04:29;7.00;99.90
75091;DHT22;63674;48.048;8.306;2023-03-25T10:07:11;7.00;99.90
75091;DHT22;63674;48.048;8.306;2023-03-25T10:09:52;7.10;99.90
75091;DHT22;63674;48.048;8.306;2023-03-25T10:12:36;7.10;99.90
75091;DHT22;63674;48.048;8.306;2023-03-25T10:15:27;7.00;99.90
75091;DHT22;63674;48.048;8.306;2023-03-25T10:18:13;6.80;99.90
75091;DHT22;63674;48.048;8.306;2023-03-25T10:20:54;6.90;99.90
75091;DHT22;63674;48.048;8.306;2023-03-25T10:23:33;7.00;99.90
75091;DHT22;63674;48.048;8.306;2023-03-25T10:26:09;7.40;99.90
75091;DHT22;63674;48.048;8.306;2023-03-25T10:28:45;7.70;99.90
75091;DHT22;63674;48.048;8.306;2023-03-25T10:31:23;7.80;99.90
75091;DHT22;63674;48.048;8.306;2023-03-25T10:33:53;7.80;99.90
75091;DHT22;63674;48.048;8.306;2023-03-25T10:36:30;7.80;99.90
75091;DHT22;63674;48.048;8.306;2023-03-25T10:39:04;8.10;99.90
75091;DHT22;63674;48.048;8.306;2023-03-25T10:41:37;8.20;99.90
75091;DHT22;63674;48.048;8.306;2023-03-25T10:44:10;8.00;99.90
75091;DHT22;63674;48.048;8.306;2023-03-25T10:46:41;7.70;99.90
75091;DHT22;63674;48.048;8.306;2023-03-25T10:49:16;7.70;99.90
75091;DHT22;63674;48.048;8.306;2023-03-25T10:51:47;7.70;99.90
75091;DHT22;63674;48.048;8.306;2023-03-25T10:54:20;7.80;99.90
75091;DHT22;63674;48.048;8.306;2023-03-25T10:56:51;7.70;99.90
75091;DHT22;63674;48.048;8.306;2023-03-25T10:59:24;7.40;99.90
75091;DHT22;63674;48.048;8.306;2023-03-25T11:01:56;7.50;99.90
75091;DHT22;63674;48.048;8.306;2023-03-25T11:04:30;7.80;99.90
75091;DHT22;63674;48.048;8.306;2023-03-25T11:07:01;7.80;99.90
75091;DHT22;63674;48.048;8.306;2023-03-25T11:09:31;7.90;99.90
75091;DHT22;63674;48.048;8.306;2023-03-25T11:12:06;8.40;99.90
75091;DHT22;63674;48.048;8.306;2023-03-25T11:14:36;8.60;99.90
75091;DHT22;63674;48.048;8.306;2023-03-25T11:17:10;8.70;99.90
75091;DHT22;63674;48.048;8.306;2023-03-25T11:19:46;8.90;99.90
75091;DHT22;63674;48.048;8.306;2023-03-25T11:22:23;8.70;99.90
75091;DHT22;63674;48.048;8.306;2023-03-25T11:24:59;8.70;99.90
75091;DHT22;63674;48.048;8.306;2023-03-25T11:27:46;8.60;99.90
75091;DHT22;63674;48.048;8.306;2023-03-25T11:30:18;8.50;99.90
75091;DHT22;63674;48.048;8.306;2023-03-25T11:32:56;8.20;99.90
75091;DHT22;63674;48.048;8.306;2023-03-25T11:35:29;8.20;99.90
75091;DHT22;63674;48.048;8.306;2023-03-25T11:38:01;8.60;99.90
75091;DHT22;63674;48.048;8.306;2023-03-25T11:40:49;8.70;99.90
75091;DHT22;63674;48.048;8.306;2023-03-25T11:43:21;8.90;99.90
75091;DHT22;63674;48.048;8.306;2023-03-25T11:45:51;8.80;99.90
75091;DHT22;63674;48.048;8.306;2023-03-25T11:48:21;8.50;99.90
75091;DHT22;63674;48.048;8.306;2023-03-25T11:50:54;8.40;99.90
75091;DHT22;63674;48.048;8.306;2023-03-25T11:53:26;8.40;99.90
75091;DHT22;63674;48.048;8.306;2023-03-25T11:55:59;8.60;99.90
75091;DHT22;63674;48.048;8.306;2023-03-25T11:58:35;8.90;99.90
75091;DHT22;63674;48.048;8.306;2023-03-25T12:01:19;9.10;99.90
75091;DHT22;63674;48.048;8.306;2023-03-25T12:03:50;9.10;99.90
75091;DHT22;63674;48.048;8.306;2023-03-25T12:06:21;9.20;99.90
75091;DHT22;63674;48.048;8.306;2023-03-25T12:08:50;9.40;99.90
75091;DHT22;63674;48.048;8.306;2023-03-25T12:11:27;9.40;99.90
75091;DHT22;63674;48.048;8.306;2023-03-25T12:14:23;9.40;99.90
75091;DHT22;63674;48.048;8.306;2023-03-25T12:17:01;9.40;99.90
75091;DHT22;63674;48.048;8.306;2023-03-25T12:19:40;9.50;99.90
75091;DHT22;63674;48.048;8.306;2023-03-25T12:22:28;9.30;99.90
75091;DHT22;63674;48.048;8.306;2023-03-25T12:25:14;9.30;99.90
75091;DHT22;63674;48.048;8.306;2023-03-25T12:27:59;9.40;99.90
75091;DHT22;63674;48.048;8.306;2023-03-25T12:30:44;9.40;99.90
75091;DHT22;63674;48.048;8.306;2023-03-25T12:33:27;9.80;99.90
75091;DHT22;63674;48.048;8.306;2023-03-25T12:36:32;9.90;99.90
75091;DHT22;63674;48.048;8.306;2023-03-25T12:39:19;10.30;99.90
75091;DHT22;63674;48.048;8.306;2023-03-25T12:42:16;10.10;99.90
75091;DHT22;63674;48.048;8.306;2023-03-25T12:45:02;9.90;99.90
75091;DHT22;63674;48.048;8.306;2023-03-25T12:47:42;9.90;99.90
75091;DHT22;63674;48.048;8.306;2023-03-25T12:50:27;9.60;99.90
75091;DHT22;63674;48.048;8.306;2023-03-25T12:53:17;9.70;99.90
75091;DHT22;63674;48.048;8.306;2023-03-25T12:56:02;9.50;99.90
75091;DHT22;63674;48.048;8.306;2023-03-25T12:59:06;9.40;99.90
75091;DHT22;63674;48.048;8.306;2023-03-25T13:01:52;9.30;99.90
75091;DHT22;63674;48.048;8.306;2023-03-25T13:07:32;9.00;99.90
75091;DHT22;63674;48.048;8.306;2023-03-25T13:10:06;9.20;99.90
75091;DHT22;63674;48.048;8.306;2023-03-25T13:12:45;9.20;99.90
75091;DHT22;63674;48.048;8.306;2023-03-25T13:15:18;9.20;99.90
75091;DHT22;63674;48.048;8.306;2023-03-25T13:17:56;9.30;99.90
75091;DHT22;63674;48.048;8.306;2023-03-25T13:20:30;9.40;99.90
75091;DHT22;63674;48.048;8.306;2023-03-25T13:23:04;9.40;99.90
75091;DHT22;63674;48.048;8.306;2023-03-25T13:25:40;9.40;99.90
75091;DHT22;63674;48.048;8.306;2023-03-25T13:28:14;9.20;99.90
75091;DHT22;63674;48.048;8.306;2023-03-25T13:30:47;9.30;99.90
75091;DHT22;63674;48.048;8.306;2023-03-25T13:33:19;9.20;99.90
75091;DHT22;63674;48.048;8.306;2023-03-25T13:35:55;9.30;99.90
75091;DHT22;63674;48.048;8.306;2023-03-25T13:38:31;9.30;99.90
75091;DHT22;63674;48.048;8.306;2023-03-25T13:41:08;9.20;99.90
75091;DHT22;63674;48.048;8.306;2023-03-25T13:43:48;9.30;99.90
75091;DHT22;63674;48.048;8.306;2023-03-25T13:46:26;8.60;99.90
75091;DHT22;63674;48.048;8.306;2023-03-25T13:49:01;9.00;99.90
75091;DHT22;63674;48.048;8.306;2023-03-25T13:51:35;8.80;99.90
75091;DHT22;63674;48.048;8.306;2023-03-25T13:54:06;8.70;99.90
75091;DHT22;63674;48.048;8.306;2023-03-25T13:57:02;8.30;99.90
75091;DHT22;63674;48.048;8.306;2023-03-25T14:00:02;8.20;99.90
75091;DHT22;63674;48.048;8.306;2023-03-25T14:12:52;8.00;99.90
75091;DHT22;63674;48.048;8.306;2023-03-25T14:15:26;8.00;99.90
75091;DHT22;63674;48.048;8.306;2023-03-25T14:17:57;7.80;99.90
75091;DHT22;63674;48.048;8.306;2023-03-25T14:20:31;7.90;99.90
75091;DHT22;63674;48.048;8.306;2023-03-25T14:23:04;8.00;99.90
75091;DHT22;63674;48.048;8.306;2023-03-25T14:25:37;7.90;99.90
75091;DHT22;63674;48.048;8.306;2023-03-25T14:28:11;8.10;99.90
75091;DHT22;63674;48.048;8.306;2023-03-25T14:30:43;8.20;99.90
75091;DHT22;63674;48.048;8.306;2023-03-25T14:33:13;8.30;99.90
75091;DHT22;63674;48.048;8.306;2023-03-25T14:35:48;8.40;99.90
75091;DHT22;63674;48.048;8.306;2023-03-25T14:41:56;8.50;99.90
75091;DHT22;63674;48.048;8.306;2023-03-25T14:44:27;8.50;99.90
75091;DHT22;63674;48.048;8.306;2023-03-25T14:47:00;8.40;99.90
75091;DHT22;63674;48.048;8.306;2023-03-25T14:49:54;8.50;99.90
75091;DHT22;63674;48.048;8.306;2023-03-25T14:52:30;8.50;99.90
75091;DHT22;63674;48.048;8.306;2023-03-25T14:55:08;8.40;99.90
75091;DHT22;63674;48.048;8.306;2023-03-25T14:57:40;8.40;99.90
75091;DHT22;63674;48.048;8.306;2023-03-25T15:00:18;8.40;99.90
75091;DHT22;63674;48.048;8.306;2023-03-25T15:02:50;8.50;99.90
75091;DHT22;63674;48.048;8.306;2023-03-25T15:05:27;8.40;99.90
75091;DHT22;63674;48.048;8.306;2023-03-25T15:07:58;8.40;99.90
75091;DHT22;63674;48.048;8.306;2023-03-25T15:10:40;8.20;99.90
75091;DHT22;63674;48.048;8.306;2023-03-25T15:13:13;8.10;99.90
75091;DHT22;63674;48.048;8.306;2023-03-25T15:15:57;8.20;99.90
75091;DHT22;63674;48.048;8.306;2023-03-25T15:18:56;8.30;99.90
75091;DHT22;63674;48.048;8.306;2023-03-25T15:24:52;8.30;99.90
75091;DHT22;63674;48.048;8.306;2023-03-25T15:30:56;7.80;99.90
75091;DHT22;63674;48.048;8.306;2023-03-25T15:33:43;7.70;99.90
75091;DHT22;63674;48.048;8.306;2023-03-25T15:36:31;7.60;99.90
75091;DHT22;63674;48.048;8.306;2023-03-25T15:39:22;7.70;99.90
75091;DHT22;63674;48.048;8.306;2023-03-25T15:42:24;7.60;99.90
75091;DHT22;63674;48.048;8.306;2023-03-25T15:45:22;7.70;99.90
75091;DHT22;63674;48.048;8.306;2023-03-25T15:48:15;7.70;99.90
75091;DHT22;63674;48.048;8.306;2023-03-25T15:50:59;7.60;99.90
75091;DHT22;63674;48.048;8.306;2023-03-25T15:56:51;7.50;99.90
75091;DHT22;63674;48.048;8.306;2023-03-25T15:59:29;7.60;99.90
75091;DHT22;63674;48.048;8.306;2023-03-25T16:02:12;7.60;99.90
75091;DHT22;63674;48.048;8.306;2023-03-25T16:05:03;7.50;99.90
75091;DHT22;63674;48.048;8.306;2023-03-25T16:07:33;7.60;99.90
75091;DHT22;63674;48.048;8.306;2023-03-25T16:10:10;7.70;99.90
75091;DHT22;63674;48.048;8.306;2023-03-25T16:12:44;7.70;99.90
75091;DHT22;63674;48.048;8.306;2023-03-25T16:15:14;7.70;99.90
75091;DHT22;63674;48.048;8.306;2023-03-25T16:17:46;7.60;99.90
75091;DHT22;63674;48.048;8.306;2023-03-25T16:20:16;7.40;99.90
75091;DHT22;63674;48.048;8.306;2023-03-25T16:22:49;7.40;99.90
75091;DHT22;63674;48.048;8.306;2023-03-25T16:25:21;7.40;99.90
75091;DHT22;63674;48.048;8.306;2023-03-25T16:27:54;7.40;99.90
75091;DHT22;63674;48.048;8.306;2023-03-25T16:30:25;7.40;99.90
75091;DHT22;63674;48.048;8.306;2023-03-25T16:33:11;7.40;99.90
75091;DHT22;63674;48.048;8.306;2023-03-25T16:35:42;7.40;99.90
75091;DHT22;63674;48.048;8.306;2023-03-25T16:38:13;7.30;99.90
75091;DHT22;63674;48.048;8.306;2023-03-25T16:40:44;7.20;99.90
75091;DHT22;63674;48.048;8.306;2023-03-25T16:43:16;7.20;99.90
75091;DHT22;63674;48.048;8.306;2023-03-25T16:45:48;7.20;99.90
75091;DHT22;63674;48.048;8.306;2023-03-25T16:48:23;7.10;99.90
75091;DHT22;63674;48.048;8.306;2023-03-25T16:50:55;7.00;99.90
75091;DHT22;63674;48.048;8.306;2023-03-25T16:53:25;6.90;99.90
75091;DHT22;63674;48.048;8.306;2023-03-25T16:55:56;6.90;99.90
75091;DHT22;63674;48.048;8.306;2023-03-25T16:58:27;6.80;99.90
75091;DHT22;63674;48.048;8.306;2023-03-25T17:00:59;6.80;99.90
75091;DHT22;63674;48.048;8.306;2023-03-25T17:03:40;6.80;99.90
75091;DHT22;63674;48.048;8.306;2023-03-25T17:06:16;6.70;99.90
75091;DHT22;63674;48.048;8.306;2023-03-25T17:08:49;6.70;99.90